createdAt,value
2023-01-27T00:02:27.577Z,12.10
2023-01-27T00:05:01.151Z,10.60
2023-01-27T00:07:34.574Z,10.60
2023-01-27T00:10:11.184Z,11.70
2023-01-27T00:13:03.104Z,11.10
2023-01-27T00:15:37.424Z,11.40
2023-01-27T00:18:11.087Z,10.50
2023-01-27T00:21:01.783Z,11.70
2023-01-27T00:23:52.875Z,11.70
2023-01-27T00:26:26.289Z,9.80
2023-01-27T00:28:59.638Z,10.40
2023-01-27T00:31:50.424Z,10.70
2023-01-27T00:34:23.732Z,12.00
2023-01-27T00:36:57.029Z,10.10
2023-01-27T00:39:30.376Z,11.30
2023-01-27T00:42:03.657Z,10.00
2023-01-27T00:44:36.932Z,10.30
2023-01-27T00:47:10.204Z,10.70
2023-01-27T00:49:43.401Z,9.40
2023-01-27T00:52:16.934Z,9.40
2023-01-27T00:54:50.121Z,10.10
2023-01-27T00:57:23.341Z,8.50
2023-01-27T00:59:59.537Z,9.80
2023-01-27T01:02:33.341Z,13.30
2023-01-27T01:05:07.077Z,12.90
2023-01-27T01:07:40.396Z,12.20
2023-01-27T01:10:15.221Z,13.20
2023-01-27T01:12:49.058Z,12.50
2023-01-27T01:15:22.403Z,13.80
2023-01-27T01:17:55.629Z,12.70
2023-01-27T01:20:28.828Z,13.50
2023-01-27T01:23:02.160Z,13.10
2023-01-27T01:25:36.037Z,14.50
2023-01-27T01:28:11.144Z,13.70
2023-01-27T01:30:44.368Z,13.50
2023-01-27T01:33:18.031Z,14.00
2023-01-27T01:35:51.279Z,13.30
2023-01-27T01:38:24.534Z,15.00
2023-01-27T01:40:57.786Z,13.80
2023-01-27T01:43:31.082Z,14.90
2023-01-27T01:46:06.177Z,14.10
2023-01-27T01:48:43.542Z,15.20
2023-01-27T01:51:22.460Z,13.80
2023-01-27T01:54:00.736Z,14.90
2023-01-27T01:56:39.939Z,15.60
2023-01-27T01:59:16.637Z,14.70
2023-01-27T02:01:51.417Z,14.70
2023-01-27T02:04:29.813Z,15.30
2023-01-27T02:07:08.495Z,14.50
2023-01-27T02:09:42.309Z,14.60
2023-01-27T02:12:15.616Z,15.50
2023-01-27T02:14:48.860Z,15.40
2023-01-27T02:17:22.216Z,15.60
2023-01-27T02:20:04.436Z,15.00
2023-01-27T02:22:48.125Z,16.20
2023-01-27T02:25:27.500Z,15.50
2023-01-27T02:28:00.847Z,16.00
2023-01-27T02:30:34.441Z,15.70
2023-01-27T02:33:13.506Z,15.10
2023-01-27T02:35:56.035Z,15.50
2023-01-27T02:38:32.190Z,14.60
2023-01-27T02:41:11.564Z,14.50
2023-01-27T02:43:44.935Z,15.30
2023-01-27T02:46:18.480Z,14.60
2023-01-27T02:48:51.886Z,15.50
2023-01-27T02:51:25.172Z,15.60
2023-01-27T02:53:58.562Z,15.40
2023-01-27T02:56:32.159Z,14.60
2023-01-27T02:59:05.726Z,15.70
2023-01-27T03:01:39.076Z,15.20
2023-01-27T03:04:12.614Z,16.10
2023-01-27T03:06:45.943Z,15.80
2023-01-27T03:09:19.419Z,15.30
2023-01-27T03:12:10.257Z,16.10
2023-01-27T03:15:00.883Z,15.00
2023-01-27T03:17:52.578Z,15.20
2023-01-27T03:20:26.514Z,15.30
2023-01-27T03:22:59.731Z,15.10
2023-01-27T03:25:33.313Z,14.80
2023-01-27T03:28:06.821Z,16.50
2023-01-27T03:30:41.152Z,15.60
2023-01-27T03:33:14.456Z,14.00
2023-01-27T03:35:49.326Z,15.20
2023-01-27T03:38:40.220Z,15.20
2023-01-27T03:41:31.083Z,14.70
2023-01-27T03:44:22.023Z,14.70
2023-01-27T03:46:55.337Z,15.40
2023-01-27T03:49:28.581Z,14.60
2023-01-27T03:52:01.832Z,14.90
2023-01-27T03:54:35.154Z,15.30
2023-01-27T03:57:08.370Z,16.00
2023-01-27T03:59:41.669Z,15.10
2023-01-27T04:02:32.875Z,14.50
2023-01-27T04:05:24.341Z,14.90
2023-01-27T04:10:29.266Z,14.30
2023-01-27T04:13:02.450Z,14.50
2023-01-27T04:15:35.776Z,14.60
2023-01-27T04:18:09.223Z,14.00
2023-01-27T04:20:42.541Z,15.50
2023-01-27T04:23:15.770Z,14.50
2023-01-27T04:25:50.495Z,14.20
2023-01-27T04:28:41.742Z,14.90
2023-01-27T04:33:47.703Z,14.80
2023-01-27T04:36:21.391Z,14.80
2023-01-27T04:38:54.755Z,14.30
2023-01-27T04:41:27.996Z,14.20
2023-01-27T04:44:01.244Z,13.70
2023-01-27T04:46:35.268Z,14.60
2023-01-27T04:49:09.669Z,14.10
2023-01-27T04:51:43.486Z,13.70
2023-01-27T04:54:17.005Z,13.00
2023-01-27T04:57:01.496Z,13.90
2023-01-27T04:59:34.749Z,14.50
2023-01-27T05:02:08.001Z,13.00
2023-01-27T05:04:41.310Z,13.80
2023-01-27T05:07:14.672Z,13.80
2023-01-27T05:09:48.011Z,13.60
2023-01-27T05:12:21.206Z,13.60
2023-01-27T05:14:54.464Z,13.70
2023-01-27T05:17:31.525Z,13.20
2023-01-27T05:20:04.930Z,13.40
2023-01-27T05:22:38.271Z,13.10
2023-01-27T05:25:12.882Z,12.90
2023-01-27T05:27:46.475Z,12.90
2023-01-27T05:30:20.184Z,13.20
2023-01-27T05:32:53.389Z,14.30
2023-01-27T05:35:26.626Z,14.00
2023-01-27T05:37:59.928Z,13.20
2023-01-27T05:40:33.920Z,13.30
2023-01-27T05:43:07.133Z,12.60
2023-01-27T05:45:40.332Z,13.00
2023-01-27T05:48:13.565Z,13.20
2023-01-27T05:50:54.362Z,12.50
2023-01-27T05:53:27.843Z,12.20
2023-01-27T05:56:01.506Z,13.40
2023-01-27T05:58:35.059Z,13.20
2023-01-27T06:01:14.244Z,13.00
2023-01-27T06:03:48.491Z,12.50
2023-01-27T06:06:24.079Z,13.30
2023-01-27T06:08:57.599Z,13.30
2023-01-27T06:11:31.005Z,13.80
2023-01-27T06:14:04.432Z,14.80
2023-01-27T06:16:37.802Z,14.30
2023-01-27T06:19:12.835Z,14.00
2023-01-27T06:21:46.115Z,14.50
2023-01-27T06:24:19.449Z,15.40
2023-01-27T06:26:52.781Z,15.50
2023-01-27T06:29:26.060Z,14.50
2023-01-27T06:31:59.358Z,15.30
2023-01-27T06:34:32.734Z,14.80
2023-01-27T06:37:06.045Z,15.30
2023-01-27T06:39:39.309Z,14.60
2023-01-27T06:42:12.585Z,14.60
2023-01-27T06:44:46.171Z,15.90
2023-01-27T06:47:19.532Z,15.00
2023-01-27T06:49:52.771Z,15.80
2023-01-27T06:52:26.063Z,14.20
2023-01-27T06:54:59.358Z,15.40
2023-01-27T06:57:32.901Z,15.20
2023-01-27T07:00:08.496Z,15.80
2023-01-27T07:02:41.872Z,15.90
2023-01-27T07:05:15.920Z,16.80
2023-01-27T07:07:49.223Z,15.90
2023-01-27T07:10:22.947Z,16.50
2023-01-27T07:13:04.836Z,16.40
2023-01-27T07:15:39.136Z,16.50
2023-01-27T07:18:14.268Z,14.80
2023-01-27T07:20:47.593Z,16.60
2023-01-27T07:23:20.894Z,17.20
2023-01-27T07:25:54.190Z,16.70
2023-01-27T07:28:27.517Z,16.50
2023-01-27T07:31:05.045Z,15.60
2023-01-27T07:33:38.337Z,17.00
2023-01-27T07:36:12.552Z,16.70
2023-01-27T07:38:45.802Z,17.20
2023-01-27T07:41:19.598Z,18.00
2023-01-27T07:43:52.978Z,18.90
2023-01-27T07:46:26.558Z,20.00
2023-01-27T07:48:59.947Z,18.30
2023-01-27T07:51:33.209Z,18.60
2023-01-27T07:54:07.478Z,18.10
2023-01-27T07:56:41.101Z,18.50
2023-01-27T07:59:15.626Z,18.20
2023-01-27T08:01:48.987Z,18.90
2023-01-27T08:04:22.716Z,19.50
2023-01-27T08:06:55.934Z,19.40
2023-01-27T08:09:29.220Z,20.10
2023-01-27T08:12:02.449Z,19.50
2023-01-27T08:14:35.696Z,18.80
2023-01-27T08:17:08.923Z,19.00
2023-01-27T08:19:42.203Z,20.20
2023-01-27T08:22:19.763Z,19.40
2023-01-27T08:24:55.472Z,19.00
2023-01-27T08:27:28.773Z,19.90
2023-01-27T08:30:02.020Z,19.40
2023-01-27T08:32:36.383Z,19.40
2023-01-27T08:35:10.831Z,20.50
2023-01-27T08:37:44.288Z,19.80
2023-01-27T08:40:18.946Z,24.00
2023-01-27T08:42:53.785Z,24.20
2023-01-27T08:45:27.176Z,25.00
2023-01-27T08:48:00.956Z,23.20
2023-01-27T08:50:34.750Z,22.50
2023-01-27T08:53:07.996Z,21.10
2023-01-27T08:55:41.257Z,24.10
2023-01-27T08:58:14.643Z,21.70
2023-01-27T09:00:48.007Z,21.70
2023-01-27T09:03:21.333Z,20.90
2023-01-27T09:05:54.716Z,21.40
2023-01-27T09:08:29.142Z,20.80
2023-01-27T09:11:08.380Z,20.30
2023-01-27T09:13:42.001Z,21.30
2023-01-27T09:16:15.207Z,21.60
2023-01-27T09:18:49.003Z,20.30
2023-01-27T09:21:22.351Z,20.50
2023-01-27T09:23:55.906Z,19.20
2023-01-27T09:26:29.340Z,19.50
2023-01-27T09:29:02.653Z,19.60
2023-01-27T09:31:36.207Z,19.00
2023-01-27T09:34:09.801Z,19.10
2023-01-27T09:36:48.467Z,19.50
2023-01-27T09:39:23.195Z,19.00
2023-01-27T09:42:36.723Z,19.70
2023-01-27T09:45:24.486Z,19.20
2023-01-27T09:48:19.867Z,19.00
2023-01-27T09:51:04.186Z,17.90
2023-01-27T09:54:14.044Z,17.90
2023-01-27T09:57:01.290Z,18.20
2023-01-27T09:59:50.203Z,17.70
2023-01-27T10:02:45.372Z,17.40
2023-01-27T10:05:36.599Z,18.10
2023-01-27T10:08:28.964Z,18.30
2023-01-27T10:11:18.723Z,17.60
2023-01-27T10:14:06.283Z,17.60
2023-01-27T10:17:09.514Z,18.50
2023-01-27T10:19:57.978Z,18.00
2023-01-27T10:22:47.064Z,18.10
2023-01-27T10:25:37.921Z,17.80
2023-01-27T10:28:16.313Z,17.70
2023-01-27T10:30:59.483Z,18.30
2023-01-27T10:33:49.337Z,18.10
2023-01-27T10:36:30.022Z,17.30
2023-01-27T10:39:19.318Z,17.70
2023-01-27T10:42:10.569Z,17.70
2023-01-27T10:45:04.906Z,16.20
2023-01-27T10:47:56.322Z,17.50
2023-01-27T10:50:38.496Z,17.30
2023-01-27T10:53:17.429Z,17.00
2023-01-27T10:58:45.930Z,17.40
2023-01-27T11:01:26.562Z,17.50
2023-01-27T11:04:05.500Z,17.80
2023-01-27T11:06:42.808Z,30.60
2023-01-27T11:09:27.862Z,58.30
2023-01-27T11:12:05.711Z,47.50
2023-01-27T11:14:47.899Z,42.40
2023-01-27T11:17:33.965Z,38.60
2023-01-27T11:20:24.615Z,35.10
2023-01-27T11:23:04.434Z,34.30
2023-01-27T11:25:50.934Z,33.60
2023-01-27T11:28:38.315Z,33.60
2023-01-27T11:31:32.277Z,32.50
2023-01-27T11:34:14.867Z,28.70
2023-01-27T11:36:49.960Z,28.90
2023-01-27T11:39:23.776Z,28.50
2023-01-27T11:41:58.207Z,19.90
2023-01-27T11:44:35.462Z,20.60
2023-01-27T11:47:24.708Z,21.50
2023-01-27T11:49:59.513Z,22.50
2023-01-27T11:52:32.996Z,21.50
2023-01-27T11:55:16.554Z,22.40
2023-01-27T11:57:54.864Z,21.10
2023-01-27T12:00:35.912Z,22.20
2023-01-27T12:03:20.036Z,20.60
2023-01-27T12:06:00.191Z,20.50
2023-01-27T12:08:46.103Z,21.50
2023-01-27T12:11:28.675Z,21.50
2023-01-27T12:14:04.203Z,21.60
2023-01-27T12:16:49.782Z,22.10
2023-01-27T12:19:31.984Z,20.00
2023-01-27T12:22:10.919Z,19.80
2023-01-27T12:27:29.632Z,22.50
2023-01-27T12:30:07.695Z,22.60
2023-01-27T12:32:45.356Z,22.40
2023-01-27T12:35:28.673Z,20.50
2023-01-27T12:38:06.566Z,19.90
2023-01-27T12:40:45.047Z,21.30
2023-01-27T12:43:20.409Z,20.50
2023-01-27T12:46:19.135Z,21.50
2023-01-27T12:48:54.934Z,22.00
2023-01-27T12:51:44.997Z,21.30
2023-01-27T12:54:27.549Z,20.80
2023-01-27T12:57:06.012Z,20.30
2023-01-27T12:59:49.137Z,21.10
2023-01-27T13:02:26.076Z,20.50
2023-01-27T13:05:03.071Z,19.50
2023-01-27T13:07:46.843Z,19.10
2023-01-27T13:10:25.436Z,20.20
2023-01-27T13:13:01.284Z,20.20
2023-01-27T13:15:34.799Z,19.20
2023-01-27T13:18:22.774Z,18.90
2023-01-27T13:21:03.905Z,18.70
2023-01-27T13:23:41.596Z,17.70
2023-01-27T13:26:21.114Z,20.90
2023-01-27T13:28:59.127Z,17.70
2023-01-27T13:31:46.808Z,19.30
2023-01-27T13:34:32.534Z,19.30
2023-01-27T13:37:14.807Z,18.90
2023-01-27T13:40:03.349Z,16.50
2023-01-27T13:42:43.342Z,18.10
2023-01-27T13:45:20.080Z,16.60
2023-01-27T13:48:00.359Z,16.60
2023-01-27T13:50:39.224Z,16.60
2023-01-27T13:56:03.214Z,15.20
2023-01-27T13:58:54.398Z,15.70
2023-01-27T14:01:43.309Z,15.30
2023-01-27T14:04:38.565Z,15.80
2023-01-27T14:07:25.484Z,16.00
2023-01-27T14:10:22.387Z,15.70
2023-01-27T14:13:16.278Z,15.40
2023-01-27T14:15:56.408Z,15.90
2023-01-27T14:18:36.496Z,19.50
2023-01-27T14:21:39.840Z,23.40
2023-01-27T14:24:28.466Z,19.80
2023-01-27T14:27:09.282Z,20.00
2023-01-27T14:29:47.438Z,20.10
2023-01-27T14:32:31.440Z,19.20
2023-01-27T14:35:23.818Z,20.60
2023-01-27T14:38:10.842Z,19.70
2023-01-27T14:41:03.060Z,19.80
2023-01-27T14:43:46.695Z,19.90
2023-01-27T14:46:47.798Z,19.60
2023-01-27T14:49:33.171Z,18.70
2023-01-27T14:52:22.605Z,20.00
2023-01-27T14:55:20.299Z,18.60
2023-01-27T15:00:44.944Z,18.10
2023-01-27T15:03:55.166Z,17.80
2023-01-27T15:06:36.034Z,17.80
2023-01-27T15:09:21.066Z,16.40
2023-01-27T15:15:08.532Z,15.80
2023-01-27T15:17:59.190Z,15.40
2023-01-27T15:20:51.309Z,15.50
2023-01-27T15:24:09.927Z,15.60
2023-01-27T15:26:43.664Z,15.60
2023-01-27T15:29:40.498Z,15.70
2023-01-27T15:32:39.368Z,14.50
2023-01-27T15:35:43.623Z,14.60
2023-01-27T15:38:38.868Z,15.00
2023-01-27T15:41:32.778Z,21.10
2023-01-27T15:44:33.530Z,51.00
2023-01-27T15:47:29.483Z,39.60
2023-01-27T15:50:29.138Z,38.10
2023-01-27T15:53:33.440Z,35.80
2023-01-27T15:56:48.799Z,30.00
2023-01-27T15:59:58.887Z,34.00
2023-01-27T16:03:02.361Z,30.30
2023-01-27T16:06:02.638Z,32.20
2023-01-27T16:09:01.403Z,31.80
2023-01-27T16:12:08.420Z,30.90
2023-01-27T16:15:35.078Z,31.90
2023-01-27T16:18:44.654Z,30.20
2023-01-27T16:21:49.424Z,29.10
2023-01-27T16:24:56.299Z,27.50
2023-01-27T16:28:00.692Z,28.30
2023-01-27T16:31:14.972Z,27.20
2023-01-27T16:34:18.806Z,25.50
2023-01-27T16:37:24.639Z,26.60
2023-01-27T16:40:24.026Z,24.30
2023-01-27T16:43:25.016Z,25.30
2023-01-27T16:46:34.415Z,25.20
2023-01-27T16:49:35.287Z,25.00
2023-01-27T16:52:41.802Z,23.30
2023-01-27T16:55:37.657Z,22.00
2023-01-27T16:58:45.524Z,22.90
2023-01-27T17:01:46.341Z,24.20
2023-01-27T17:04:40.094Z,22.00
2023-01-27T17:07:34.655Z,22.40
2023-01-27T17:10:34.836Z,19.50
2023-01-27T17:13:35.347Z,20.30
2023-01-27T17:16:34.183Z,20.10
2023-01-27T17:19:32.697Z,21.00
2023-01-27T17:22:35.191Z,20.20
2023-01-27T17:25:36.632Z,18.10
2023-01-27T17:28:31.400Z,20.50
2023-01-27T17:31:27.528Z,18.70
2023-01-27T17:34:23.587Z,19.10
2023-01-27T17:37:22.898Z,18.90
2023-01-27T17:40:21.865Z,17.70
2023-01-27T17:43:19.570Z,16.40
2023-01-27T17:46:23.231Z,16.80
2023-01-27T17:49:19.868Z,16.70
2023-01-27T17:51:57.584Z,17.60
2023-01-27T17:54:52.377Z,17.30
2023-01-27T17:57:47.661Z,15.90
2023-01-27T18:00:44.856Z,16.40
2023-01-27T18:03:39.688Z,16.00
2023-01-27T18:06:34.168Z,16.10
2023-01-27T18:09:30.667Z,15.20
2023-01-27T18:12:34.139Z,14.70
2023-01-27T18:15:51.290Z,14.90
2023-01-27T18:18:45.171Z,14.80
2023-01-27T18:21:39.062Z,12.80
2023-01-27T18:24:33.526Z,13.10
2023-01-27T18:27:32.592Z,13.70
2023-01-27T18:30:26.701Z,13.30
2023-01-27T18:33:21.038Z,12.40
2023-01-27T18:36:26.813Z,13.00
2023-01-27T18:39:46.393Z,12.80
2023-01-27T18:42:40.083Z,13.10
2023-01-27T18:45:34.186Z,12.90
2023-01-27T18:48:32.815Z,12.60
2023-01-27T18:51:26.754Z,12.70
2023-01-27T18:54:20.489Z,12.60
2023-01-27T18:57:14.125Z,12.70
2023-01-27T19:00:13.105Z,12.50
2023-01-27T19:03:12.571Z,12.40
2023-01-27T19:06:07.043Z,12.60
2023-01-27T19:09:00.899Z,12.60
2023-01-27T19:11:56.852Z,11.80
2023-01-27T19:14:51.002Z,12.20
2023-01-27T19:17:46.252Z,11.60
2023-01-27T19:20:40.194Z,11.90
2023-01-27T19:23:35.613Z,11.90
2023-01-27T19:26:30.399Z,12.30
2023-01-27T19:29:24.217Z,11.40
2023-01-27T19:32:18.511Z,11.50
2023-01-27T19:35:15.063Z,11.90
2023-01-27T19:38:12.034Z,11.80
2023-01-27T19:41:06.205Z,11.20
2023-01-27T19:44:00.427Z,11.30
2023-01-27T19:46:55.924Z,11.10
2023-01-27T19:49:49.829Z,11.10
2023-01-27T19:52:43.846Z,10.80
2023-01-27T19:55:38.126Z,10.80
2023-01-27T19:58:32.404Z,10.80
2023-01-27T20:01:27.544Z,11.10
2023-01-27T20:04:21.601Z,10.80
2023-01-27T20:07:16.503Z,10.50
2023-01-27T20:10:17.998Z,10.90
2023-01-27T20:13:16.744Z,9.70
2023-01-27T20:16:11.477Z,10.60
2023-01-27T20:19:06.257Z,10.40
2023-01-27T20:22:01.742Z,10.70
2023-01-27T20:24:55.875Z,11.80
2023-01-27T20:27:52.520Z,9.90
2023-01-27T20:30:46.553Z,9.00
2023-01-27T20:33:40.642Z,8.80
2023-01-27T20:36:34.783Z,8.90
2023-01-27T20:39:28.933Z,8.20
2023-01-27T20:42:22.949Z,8.00
2023-01-27T20:45:17.361Z,7.10
2023-01-27T20:48:13.030Z,7.70
2023-01-27T20:51:10.346Z,6.90
2023-01-27T20:54:05.729Z,7.30
2023-01-27T20:56:59.494Z,6.60
2023-01-27T20:59:53.319Z,6.90
2023-01-27T21:02:47.624Z,7.30
2023-01-27T21:05:45.401Z,6.40
2023-01-27T21:08:39.280Z,6.80
2023-01-27T21:11:33.151Z,6.90
2023-01-27T21:14:27.044Z,7.20
2023-01-27T21:17:20.805Z,8.20
2023-01-27T21:20:15.968Z,7.10
2023-01-27T21:23:09.668Z,7.60
2023-01-27T21:26:10.738Z,7.30
2023-01-27T21:29:04.962Z,7.50
2023-01-27T21:31:58.793Z,8.20
2023-01-27T21:34:52.547Z,8.10
2023-01-27T21:37:46.251Z,7.50
2023-01-27T21:40:40.596Z,7.50
2023-01-27T21:43:52.254Z,7.80
2023-01-27T21:46:46.240Z,7.40
2023-01-27T21:50:04.042Z,7.40
2023-01-27T21:52:57.930Z,7.50
2023-01-27T21:55:51.849Z,7.80
2023-01-27T21:58:45.616Z,8.00
2023-01-27T22:01:39.812Z,7.70
2023-01-27T22:04:33.804Z,7.70
2023-01-27T22:07:27.849Z,7.40
2023-01-27T22:10:23.909Z,7.60
2023-01-27T22:13:17.661Z,7.40
2023-01-27T22:16:15.631Z,8.00
2023-01-27T22:19:09.614Z,7.80
2023-01-27T22:22:03.617Z,8.60
2023-01-27T22:24:57.477Z,9.30
2023-01-27T22:27:54.301Z,8.40
2023-01-27T22:30:48.532Z,8.50
2023-01-27T22:33:45.017Z,8.20
2023-01-27T22:36:38.991Z,7.80
2023-01-27T22:39:18.701Z,8.40
2023-01-27T22:42:12.937Z,8.10
2023-01-27T22:45:08.186Z,8.40
2023-01-27T22:48:02.270Z,8.40
2023-01-27T22:50:56.385Z,7.90
2023-01-27T22:53:51.371Z,7.80
2023-01-27T22:56:45.159Z,8.10
2023-01-27T22:59:39.148Z,9.10
2023-01-27T23:02:33.106Z,8.50
2023-01-27T23:05:26.898Z,8.70
2023-01-27T23:08:21.095Z,8.10
2023-01-27T23:11:15.041Z,8.20
2023-01-27T23:14:08.799Z,8.60
2023-01-27T23:17:03.096Z,8.40
2023-01-27T23:19:56.841Z,8.60
2023-01-27T23:22:51.078Z,8.40
2023-01-27T23:25:48.184Z,8.80
2023-01-27T23:28:42.827Z,8.90
2023-01-27T23:31:36.682Z,8.30
2023-01-27T23:34:30.561Z,9.10
2023-01-27T23:37:24.226Z,8.70
2023-01-27T23:40:19.625Z,8.80
2023-01-27T23:43:13.777Z,8.10
2023-01-27T23:46:08.515Z,8.20
2023-01-27T23:49:02.510Z,8.50
2023-01-27T23:51:56.310Z,8.10
2023-01-27T23:54:50.075Z,8.40
2023-01-27T23:57:43.856Z,9.10
